Time;durP1;ratioP1;P1;durP2;ratioP2;P2;SDS_P1;SDS_P2;PMS_P1;PMS_P2;Temp;Humidity;BMP_temperature;BMP_pressure;BME280_temperature;BME280_humidity;BME280_pressure;Samples;Min_cycle;Max_cycle;Signal;HPM_P1;HPM_P2
2023/06/16 00:00:37;;;;;;;4.30;3.90;;;;;;;;;;5046276;28;20428;-75
2023/06/16 00:03:05;;;;;;;5.07;3.80;;;;;;;;;;5030566;28;20759;-75
2023/06/16 00:05:34;;;;;;;4.80;4.40;;;;;;;;;;5021803;28;20881;-76
2023/06/16 00:08:03;;;;;;;4.40;4.00;;;;;;;;;;4980227;28;20508;-76
2023/06/16 00:10:30;;;;;;;5.00;4.20;;;;;;;;;;4986923;28;20427;-76
2023/06/16 00:12:57;;;;;;;4.13;3.83;;;;;;;;;;5025114;28;20443;-76
2023/06/16 00:15:26;;;;;;;4.60;4.20;;;;;;;;;;5066377;28;20744;-77
2023/06/16 00:17:56;;;;;;;4.80;3.87;;;;;;;;;;4975304;28;20425;-77
2023/06/16 00:20:25;;;;;;;4.93;4.43;;;;;;;;;;4963372;28;20428;-76
2023/06/16 00:22:52;;;;;;;4.53;4.13;;;;;;;;;;4998510;28;20475;-76
2023/06/16 00:25:20;;;;;;;4.80;4.20;;;;;;;;;;5055335;28;20483;-76
2023/06/16 00:27:47;;;;;;;5.07;4.30;;;;;;;;;;4996775;28;20448;-76
2023/06/16 00:30:14;;;;;;;4.65;3.97;;;;;;;;;;4999227;28;20416;-76
2023/06/16 00:32:43;;;;;;;4.80;4.40;;;;;;;;;;4969652;28;20435;-77
2023/06/16 00:35:10;;;;;;;4.10;3.80;;;;;;;;;;4993814;28;20920;-76
2023/06/16 00:37:37;;;;;;;4.80;3.67;;;;;;;;;;5002864;28;20644;-76
2023/06/16 00:40:05;;;;;;;4.25;3.70;;;;;;;;;;5002856;28;20568;-76
2023/06/16 00:42:32;;;;;;;5.82;4.45;;;;;;;;;;4990978;28;20799;-76
2023/06/16 00:44:59;;;;;;;5.17;4.10;;;;;;;;;;5006947;28;20590;-76
2023/06/16 00:47:26;;;;;;;4.43;4.03;;;;;;;;;;4980240;28;20795;-77
2023/06/16 00:49:54;;;;;;;4.47;4.07;;;;;;;;;;4966061;28;20458;-76
2023/06/16 00:52:22;;;;;;;6.13;4.10;;;;;;;;;;5019272;28;20439;-76
2023/06/16 00:54:50;;;;;;;4.90;4.20;;;;;;;;;;4984788;28;20419;-77
2023/06/16 00:57:17;;;;;;;4.18;3.78;;;;;;;;;;4986103;28;21242;-76
2023/06/16 00:59:45;;;;;;;4.63;4.10;;;;;;;;;;5020805;28;20549;-76
2023/06/16 01:02:13;;;;;;;4.50;3.80;;;;;;;;;;5016887;28;20426;-77
2023/06/16 01:04:40;;;;;;;4.38;3.97;;;;;;;;;;4992102;28;20421;-76
2023/06/16 01:07:12;;;;;;;4.65;3.78;;;;;;;;;;5056336;28;20509;-76
2023/06/16 01:09:44;;;;;;;6.10;4.50;;;;;;;;;;5002440;28;20961;-76
2023/06/16 01:12:13;;;;;;;4.10;3.70;;;;;;;;;;5032994;28;20489;-76
2023/06/16 01:14:47;;;;;;;4.32;3.50;;;;;;;;;;5038425;28;20470;-76
2023/06/16 01:17:16;;;;;;;4.07;3.55;;;;;;;;;;5005504;28;20514;-77
2023/06/16 01:19:47;;;;;;;4.57;3.90;;;;;;;;;;4963476;28;20424;-76
2023/06/16 01:22:21;;;;;;;4.72;4.22;;;;;;;;;;4964192;28;20432;-76
2023/06/16 01:24:53;;;;;;;7.20;4.30;;;;;;;;;;4985741;28;20796;-76
2023/06/16 01:27:22;;;;;;;4.80;4.20;;;;;;;;;;4997880;28;20433;-76
2023/06/16 01:29:51;;;;;;;4.55;3.67;;;;;;;;;;5012975;28;20432;-76
2023/06/16 01:32:20;;;;;;;5.10;3.97;;;;;;;;;;4963580;28;20946;-76
2023/06/16 01:34:48;;;;;;;5.28;4.20;;;;;;;;;;4963677;28;20425;-76
2023/06/16 01:37:16;;;;;;;5.18;4.32;;;;;;;;;;5022380;28;20845;-76
2023/06/16 01:39:44;;;;;;;4.53;4.13;;;;;;;;;;5045430;28;20742;-76
2023/06/16 01:42:13;;;;;;;4.10;3.70;;;;;;;;;;4960121;28;20463;-77
2023/06/16 01:44:40;;;;;;;4.43;4.03;;;;;;;;;;4991540;28;20432;-76
2023/06/16 01:47:07;;;;;;;4.95;4.45;;;;;;;;;;5051450;28;20917;-76
2023/06/16 01:49:35;;;;;;;4.30;3.90;;;;;;;;;;5040053;28;20448;-76
2023/06/16 01:52:02;;;;;;;4.50;4.00;;;;;;;;;;5021204;28;20487;-76
2023/06/16 01:54:29;;;;;;;4.40;4.00;;;;;;;;;;5005208;28;20420;-77
2023/06/16 01:56:57;;;;;;;4.50;4.00;;;;;;;;;;5029559;28;20423;-76
2023/06/16 01:59:25;;;;;;;5.35;3.90;;;;;;;;;;4991056;28;20485;-76
2023/06/16 02:01:53;;;;;;;4.95;3.92;;;;;;;;;;5022875;28;20511;-76
2023/06/16 02:04:21;;;;;;;4.32;3.92;;;;;;;;;;5023723;28;20438;-76
2023/06/16 02:06:50;;;;;;;4.40;4.00;;;;;;;;;;5022262;28;20424;-76
2023/06/16 02:09:18;;;;;;;5.03;4.30;;;;;;;;;;5002120;28;20419;-76
2023/06/16 02:11:45;;;;;;;5.70;4.15;;;;;;;;;;5016961;28;20552;-76
2023/06/16 02:14:12;;;;;;;4.28;3.80;;;;;;;;;;4967769;28;20879;-76
2023/06/16 02:16:42;;;;;;;4.22;3.83;;;;;;;;;;5017022;28;20429;-76
2023/06/16 02:19:09;;;;;;;4.00;3.60;;;;;;;;;;4961656;28;20436;-76
2023/06/16 02:21:37;;;;;;;4.45;3.90;;;;;;;;;;4962714;28;20593;-76
2023/06/16 02:24:04;;;;;;;4.65;4.10;;;;;;;;;;5028421;28;20533;-76
2023/06/16 02:26:31;;;;;;;4.40;4.00;;;;;;;;;;4962059;28;20451;-76
2023/06/16 02:28:59;;;;;;;5.28;4.10;;;;;;;;;;4967357;28;20888;-76
2023/06/16 02:31:26;;;;;;;4.30;3.90;;;;;;;;;;4984454;28;20477;-76
2023/06/16 02:33:55;;;;;;;4.20;3.80;;;;;;;;;;5025286;28;20440;-76
2023/06/16 02:36:23;;;;;;;4.43;4.03;;;;;;;;;;4961851;28;20598;-76
2023/06/16 02:38:51;;;;;;;5.20;3.75;;;;;;;;;;4994759;28;20440;-76
2023/06/16 02:41:18;;;;;;;5.18;4.50;;;;;;;;;;4993081;28;20443;-76
2023/06/16 02:43:45;;;;;;;5.15;4.55;;;;;;;;;;4962639;28;20928;-76
2023/06/16 02:46:12;;;;;;;4.60;4.20;;;;;;;;;;4962551;28;20428;-76
2023/06/16 02:48:39;;;;;;;4.88;4.47;;;;;;;;;;4970335;28;20443;-76
2023/06/16 02:51:07;;;;;;;5.47;4.87;;;;;;;;;;5009311;28;20424;-76
2023/06/16 02:53:34;;;;;;;4.68;4.13;;;;;;;;;;4986791;28;20435;-76
2023/06/16 02:56:02;;;;;;;4.90;4.50;;;;;;;;;;5007207;28;20436;-76
2023/06/16 02:58:29;;;;;;;5.20;4.63;;;;;;;;;;4999445;28;20436;-76
2023/06/16 03:00:56;;;;;;;6.60;4.68;;;;;;;;;;5038791;28;20458;-76
2023/06/16 03:03:25;;;;;;;5.75;5.15;;;;;;;;;;4990590;28;20499;-77
2023/06/16 03:05:52;;;;;;;5.82;5.22;;;;;;;;;;5012276;28;20519;-76
2023/06/16 03:08:20;;;;;;;4.90;4.50;;;;;;;;;;4967645;28;20436;-76
2023/06/16 03:10:47;;;;;;;5.97;5.38;;;;;;;;;;5012863;28;20503;-76
2023/06/16 03:13:14;;;;;;;5.75;5.20;;;;;;;;;;4980469;28;20420;-76
2023/06/16 03:15:43;;;;;;;6.60;6.10;;;;;;;;;;5026523;28;20420;-76
2023/06/16 03:18:10;;;;;;;6.30;5.70;;;;;;;;;;4951621;28;20426;-76
2023/06/16 03:20:40;;;;;;;8.85;6.78;;;;;;;;;;4965074;28;20432;-76
2023/06/16 03:23:07;;;;;;;6.50;5.90;;;;;;;;;;4994231;28;20458;-76
2023/06/16 03:25:36;;;;;;;6.10;5.50;;;;;;;;;;4963359;28;20440;-76
2023/06/16 03:28:04;;;;;;;7.32;6.10;;;;;;;;;;5054600;28;20586;-76
2023/06/16 03:30:31;;;;;;;6.65;6.05;;;;;;;;;;5036384;28;20455;-76
2023/06/16 03:32:58;;;;;;;6.55;5.95;;;;;;;;;;5063479;28;20418;-76
2023/06/16 03:35:25;;;;;;;6.60;6.00;;;;;;;;;;4997252;28;20432;-76
2023/06/16 03:37:52;;;;;;;7.00;6.30;;;;;;;;;;4976998;28;20421;-76
2023/06/16 03:40:19;;;;;;;7.10;6.40;;;;;;;;;;5031790;28;21140;-76
2023/06/16 03:42:48;;;;;;;6.53;5.82;;;;;;;;;;4971525;28;20515;-75
2023/06/16 03:45:15;;;;;;;6.85;6.25;;;;;;;;;;5011057;28;20435;-75
2023/06/16 03:47:42;;;;;;;8.70;7.10;;;;;;;;;;5023659;28;20712;-75
2023/06/16 03:50:10;;;;;;;7.47;6.68;;;;;;;;;;4997314;28;20920;-75
2023/06/16 03:52:37;;;;;;;7.35;6.75;;;;;;;;;;5012321;28;20447;-76
2023/06/16 03:55:05;;;;;;;7.60;6.90;;;;;;;;;;4963244;28;20491;-75
2023/06/16 03:57:32;;;;;;;7.30;6.60;;;;;;;;;;4980253;28;20693;-75
2023/06/16 04:00:01;;;;;;;7.15;6.45;;;;;;;;;;4999160;28;20518;-76
2023/06/16 04:02:28;;;;;;;7.90;7.10;;;;;;;;;;5023183;28;20430;-76
2023/06/16 04:04:56;;;;;;;7.38;6.68;;;;;;;;;;5024177;28;20423;-76
2023/06/16 04:07:23;;;;;;;7.40;6.70;;;;;;;;;;5036197;28;20457;-76
2023/06/16 04:09:50;;;;;;;7.80;7.10;;;;;;;;;;5022849;28;20498;-76
2023/06/16 04:12:17;;;;;;;9.85;7.13;;;;;;;;;;5057559;28;20426;-76
2023/06/16 04:14:44;;;;;;;7.82;7.13;;;;;;;;;;4975934;28;20447;-76
2023/06/16 04:17:13;;;;;;;8.00;6.80;;;;;;;;;;4994240;28;20454;-76
2023/06/16 04:19:41;;;;;;;7.55;6.68;;;;;;;;;;5021680;28;20424;-76
2023/06/16 04:22:08;;;;;;;7.30;6.45;;;;;;;;;;5028814;28;20416;-76
2023/06/16 04:24:35;;;;;;;7.38;6.68;;;;;;;;;;4996529;28;20529;-76
2023/06/16 04:27:02;;;;;;;7.50;6.45;;;;;;;;;;5027680;28;20499;-76
2023/06/16 04:29:29;;;;;;;10.10;7.20;;;;;;;;;;5025749;28;20870;-75
2023/06/16 04:31:59;;;;;;;10.93;7.40;;;;;;;;;;5034616;28;20420;-76
2023/06/16 04:34:31;;;;;;;10.05;7.85;;;;;;;;;;5001687;28;20506;-76
2023/06/16 04:36:58;;;;;;;10.57;7.25;;;;;;;;;;5054563;28;20452;-76
2023/06/16 04:39:25;;;;;;;10.20;7.63;;;;;;;;;;4974227;28;20468;-76
2023/06/16 04:41:52;;;;;;;10.40;8.00;;;;;;;;;;4965865;28;20969;-76
2023/06/16 04:44:19;;;;;;;11.30;8.30;;;;;;;;;;4977732;28;20444;-76
2023/06/16 04:46:46;;;;;;;8.95;7.15;;;;;;;;;;4983266;28;20496;-76
2023/06/16 04:49:14;;;;;;;9.50;7.50;;;;;;;;;;5020381;28;20469;-76
2023/06/16 04:51:44;;;;;;;10.52;7.82;;;;;;;;;;4972491;28;20452;-75
2023/06/16 04:54:11;;;;;;;9.07;7.72;;;;;;;;;;5052377;28;20923;-76
2023/06/16 04:56:38;;;;;;;9.35;7.55;;;;;;;;;;5053282;28;20603;-76
2023/06/16 04:59:05;;;;;;;8.50;7.53;;;;;;;;;;5000237;28;20450;-74
2023/06/16 05:01:32;;;;;;;10.43;7.40;;;;;;;;;;4993729;28;20808;-74
2023/06/16 05:04:00;;;;;;;8.38;7.57;;;;;;;;;;4973277;28;20468;-74
2023/06/16 05:06:27;;;;;;;9.43;8.13;;;;;;;;;;5033712;28;20921;-74
2023/06/16 05:08:55;;;;;;;10.48;8.02;;;;;;;;;;4974888;28;20783;-75
2023/06/16 05:11:23;;;;;;;9.25;8.30;;;;;;;;;;5035977;28;20515;-75
2023/06/16 05:13:50;;;;;;;9.27;8.18;;;;;;;;;;5034604;28;20504;-72
2023/06/16 05:16:17;;;;;;;8.75;7.93;;;;;;;;;;5012808;28;20463;-75
2023/06/16 05:18:44;;;;;;;8.95;8.10;;;;;;;;;;4961450;28;20435;-78
2023/06/16 05:21:11;;;;;;;8.65;7.50;;;;;;;;;;4962614;28;20421;-73
2023/06/16 05:23:39;;;;;;;8.13;7.30;;;;;;;;;;4966743;28;20476;-77
2023/06/16 05:26:07;;;;;;;9.45;7.30;;;;;;;;;;5038916;28;20848;-73
2023/06/16 05:28:34;;;;;;;7.97;7.18;;;;;;;;;;5003443;28;20591;-73
2023/06/16 05:33:34;;;;;;;9.10;7.82;;;;;;;;;;5045137;28;20432;-65
2023/06/16 05:36:01;;;;;;;8.80;7.90;;;;;;;;;;4985861;28;20923;-67
2023/06/16 05:38:28;;;;;;;9.20;8.30;;;;;;;;;;4998708;28;20687;-67
2023/06/16 05:40:56;;;;;;;8.73;7.82;;;;;;;;;;4997390;28;20423;-66
2023/06/16 05:43:24;;;;;;;9.82;8.35;;;;;;;;;;4983559;28;20435;-66
2023/06/16 05:45:52;;;;;;;8.80;8.00;;;;;;;;;;4979256;28;20884;-64
2023/06/16 05:48:19;;;;;;;9.80;8.90;;;;;;;;;;4979315;28;20800;-64
2023/06/16 05:50:47;;;;;;;8.90;8.00;;;;;;;;;;4977159;28;20529;-67
2023/06/16 05:53:14;;;;;;;8.60;7.80;;;;;;;;;;4982722;28;20438;-65
2023/06/16 05:55:41;;;;;;;9.43;8.43;;;;;;;;;;4974698;28;20436;-65
2023/06/16 05:58:09;;;;;;;9.20;8.40;;;;;;;;;;4985838;28;20415;-65
2023/06/16 06:00:37;;;;;;;9.25;8.35;;;;;;;;;;4981720;28;20521;-65
2023/06/16 06:03:04;;;;;;;9.50;8.50;;;;;;;;;;4983167;28;20428;-66
2023/06/16 06:05:31;;;;;;;9.43;8.50;;;;;;;;;;4984915;28;20485;-65
2023/06/16 06:07:58;;;;;;;7.82;7.22;;;;;;;;;;4984099;28;20450;-66
2023/06/16 06:10:25;;;;;;;9.48;7.15;;;;;;;;;;4982855;28;20419;-66
2023/06/16 06:12:52;;;;;;;8.38;7.57;;;;;;;;;;4982841;28;20449;-66
2023/06/16 06:15:20;;;;;;;9.45;7.03;;;;;;;;;;4983164;28;20435;-66
2023/06/16 06:17:48;;;;;;;7.80;7.03;;;;;;;;;;4973729;28;20937;-66
2023/06/16 06:20:15;;;;;;;8.15;6.10;;;;;;;;;;4978043;28;20421;-66
2023/06/16 06:22:42;;;;;;;7.47;6.68;;;;;;;;;;4981879;28;20424;-64
2023/06/16 06:25:10;;;;;;;7.90;6.55;;;;;;;;;;4970745;28;20419;-65
2023/06/16 06:27:37;;;;;;;7.55;6.55;;;;;;;;;;4973732;28;20454;-66
2023/06/16 06:30:04;;;;;;;7.23;6.50;;;;;;;;;;4974151;28;20471;-66
2023/06/16 06:32:31;;;;;;;7.85;6.10;;;;;;;;;;4978964;28;20914;-66
2023/06/16 06:35:00;;;;;;;7.53;6.40;;;;;;;;;;4970307;28;20430;-66
2023/06/16 06:37:30;;;;;;;7.55;6.10;;;;;;;;;;4977868;28;20438;-66
2023/06/16 06:39:57;;;;;;;8.75;5.70;;;;;;;;;;4984404;28;20459;-66
2023/06/16 06:42:26;;;;;;;7.80;5.90;;;;;;;;;;4982923;28;20906;-67
2023/06/16 06:44:53;;;;;;;6.70;6.00;;;;;;;;;;4979120;28;20792;-66
2023/06/16 06:47:21;;;;;;;6.53;5.93;;;;;;;;;;4987264;28;20866;-66
2023/06/16 06:49:49;;;;;;;7.28;5.80;;;;;;;;;;4986065;28;20751;-66
2023/06/16 06:52:17;;;;;;;6.55;5.95;;;;;;;;;;4987291;28;20438;-65
2023/06/16 06:54:45;;;;;;;7.25;6.13;;;;;;;;;;4987933;28;20809;-66
2023/06/16 06:57:12;;;;;;;6.80;5.60;;;;;;;;;;4984530;28;20445;-67
2023/06/16 06:59:39;;;;;;;6.95;6.25;;;;;;;;;;4983278;28;20472;-67
2023/06/16 07:02:07;;;;;;;6.28;5.60;;;;;;;;;;4985066;28;20438;-67
2023/06/16 07:04:37;;;;;;;6.40;5.70;;;;;;;;;;4983143;28;20423;-66
2023/06/16 07:07:05;;;;;;;6.28;5.60;;;;;;;;;;4982626;28;20446;-67
2023/06/16 07:09:33;;;;;;;9.50;5.70;;;;;;;;;;4984715;28;20515;-66
2023/06/16 07:12:00;;;;;;;8.82;5.50;;;;;;;;;;4980815;28;20442;-67
2023/06/16 07:14:29;;;;;;;5.88;5.28;;;;;;;;;;4985604;28;20442;-67
2023/06/16 07:16:57;;;;;;;6.03;5.43;;;;;;;;;;4980706;28;20464;-66
2023/06/16 07:19:26;;;;;;;7.85;5.30;;;;;;;;;;5001049;28;20522;-65
2023/06/16 07:21:53;;;;;;;7.40;5.50;;;;;;;;;;4987283;28;20445;-66
2023/06/16 07:24:20;;;;;;;5.57;4.93;;;;;;;;;;4984431;28;20438;-66
2023/06/16 07:26:49;;;;;;;5.63;5.03;;;;;;;;;;4978819;28;20507;-67
2023/06/16 07:29:17;;;;;;;6.80;5.60;;;;;;;;;;4982140;28;20940;-67
2023/06/16 07:31:45;;;;;;;6.50;5.00;;;;;;;;;;4983201;28;20517;-67
2023/06/16 07:34:12;;;;;;;6.18;4.78;;;;;;;;;;4986027;28;20487;-67
2023/06/16 07:36:39;;;;;;;5.55;4.88;;;;;;;;;;4984805;28;20446;-67
2023/06/16 07:39:06;;;;;;;6.57;4.47;;;;;;;;;;4980692;28;20434;-66
2023/06/16 07:41:33;;;;;;;6.50;5.00;;;;;;;;;;4981032;28;20475;-65
2023/06/16 07:44:02;;;;;;;6.57;4.80;;;;;;;;;;4985410;28;20815;-68
2023/06/16 07:46:29;;;;;;;6.43;4.72;;;;;;;;;;4987987;28;20448;-66
2023/06/16 07:48:56;;;;;;;6.50;4.32;;;;;;;;;;4974171;28;20435;-68
2023/06/16 07:51:23;;;;;;;5.05;4.45;;;;;;;;;;4987411;28;20789;-66
2023/06/16 07:53:50;;;;;;;5.00;4.20;;;;;;;;;;4972163;28;20912;-68
2023/06/16 07:56:18;;;;;;;7.78;5.32;;;;;;;;;;5000823;28;20419;-65
2023/06/16 07:58:45;;;;;;;5.05;4.30;;;;;;;;;;4976645;28;20435;-67
2023/06/16 08:01:13;;;;;;;6.20;4.50;;;;;;;;;;4986363;28;20438;-66
2023/06/16 08:03:40;;;;;;;5.50;4.10;;;;;;;;;;4979558;28;20986;-67
2023/06/16 08:06:07;;;;;;;5.05;4.40;;;;;;;;;;4981182;28;20436;-67
2023/06/16 08:08:35;;;;;;;5.78;4.90;;;;;;;;;;4981002;28;20442;-67
2023/06/16 08:11:03;;;;;;;6.85;4.65;;;;;;;;;;4982341;28;20940;-67
2023/06/16 08:13:31;;;;;;;5.60;4.90;;;;;;;;;;4985056;28;20442;-66
2023/06/16 08:15:58;;;;;;;4.93;4.40;;;;;;;;;;4983580;28;20441;-67
2023/06/16 08:18:27;;;;;;;4.90;4.40;;;;;;;;;;4980533;28;20520;-68
2023/06/16 08:20:55;;;;;;;5.15;4.30;;;;;;;;;;4992006;28;20438;-67
2023/06/16 08:23:22;;;;;;;5.10;4.50;;;;;;;;;;4997068;28;20434;-67
2023/06/16 08:25:49;;;;;;;4.85;4.20;;;;;;;;;;4977643;28;20454;-67
2023/06/16 08:28:16;;;;;;;5.13;4.68;;;;;;;;;;4980281;28;20451;-67
2023/06/16 08:30:43;;;;;;;4.68;4.10;;;;;;;;;;4980608;28;20436;-67
2023/06/16 08:33:10;;;;;;;4.10;3.70;;;;;;;;;;4980513;28;20438;-67
2023/06/16 08:35:39;;;;;;;5.23;3.60;;;;;;;;;;4979291;28;20466;-67
2023/06/16 08:38:07;;;;;;;4.18;3.78;;;;;;;;;;4985987;28;20429;-67
2023/06/16 08:40:34;;;;;;;5.00;3.95;;;;;;;;;;4979122;28;20507;-67
2023/06/16 08:43:02;;;;;;;3.70;3.40;;;;;;;;;;4975761;28;20428;-67
2023/06/16 08:45:29;;;;;;;4.13;3.60;;;;;;;;;;4977043;28;20434;-67
2023/06/16 08:47:58;;;;;;;5.50;3.80;;;;;;;;;;4981652;28;20440;-67
2023/06/16 08:50:26;;;;;;;4.25;3.67;;;;;;;;;;4977467;28;20438;-67
2023/06/16 08:52:57;;;;;;;4.75;3.90;;;;;;;;;;4979394;28;20495;-67
2023/06/16 08:55:25;;;;;;;7.93;4.00;;;;;;;;;;4981530;28;20789;-67
2023/06/16 08:57:53;;;;;;;4.28;3.60;;;;;;;;;;4973616;28;20515;-67
2023/06/16 09:00:21;;;;;;;4.88;3.80;;;;;;;;;;4978859;28;20446;-67
2023/06/16 09:02:49;;;;;;;4.20;3.67;;;;;;;;;;4978485;28;20422;-66
2023/06/16 09:05:18;;;;;;;3.80;3.40;;;;;;;;;;4977505;28;20420;-67
2023/06/16 09:07:45;;;;;;;4.35;3.65;;;;;;;;;;4972672;28;20507;-67
2023/06/16 09:10:13;;;;;;;4.23;3.83;;;;;;;;;;4996957;28;20877;-67
2023/06/16 09:12:40;;;;;;;4.03;3.40;;;;;;;;;;4984230;28;20442;-68
2023/06/16 09:15:10;;;;;;;4.28;3.20;;;;;;;;;;4985756;28;20466;-67
2023/06/16 09:17:38;;;;;;;4.20;2.90;;;;;;;;;;4977950;28;20766;-67
2023/06/16 09:20:06;;;;;;;3.40;3.00;;;;;;;;;;4973846;28;20501;-67
2023/06/16 09:22:33;;;;;;;4.68;3.22;;;;;;;;;;4975187;28;20883;-67
2023/06/16 09:25:01;;;;;;;3.83;2.85;;;;;;;;;;4992793;28;20424;-68
2023/06/16 09:27:43;;;;;;;3.25;2.95;;;;;;;;;;4991831;28;20535;-67
2023/06/16 09:30:11;;;;;;;3.28;2.97;;;;;;;;;;4979282;28;20537;-67
2023/06/16 09:32:38;;;;;;;3.30;2.97;;;;;;;;;;4991502;28;20437;-67
2023/06/16 09:35:18;;;;;;;4.50;3.20;;;;;;;;;;4986691;28;20624;-67
2023/06/16 09:37:45;;;;;;;3.70;2.80;;;;;;;;;;4977619;28;20436;-67
2023/06/16 09:40:14;;;;;;;3.90;2.90;;;;;;;;;;4978116;28;20475;-67
2023/06/16 09:42:43;;;;;;;4.10;2.90;;;;;;;;;;4975941;28;20467;-67
2023/06/16 09:45:11;;;;;;;3.97;2.90;;;;;;;;;;4976164;28;20434;-66
2023/06/16 09:47:38;;;;;;;3.13;2.83;;;;;;;;;;4986644;28;20962;-68
2023/06/16 09:50:07;;;;;;;3.00;2.70;;;;;;;;;;4987396;28;20887;-68
2023/06/16 09:52:35;;;;;;;5.07;2.92;;;;;;;;;;4979878;28;20494;-68
2023/06/16 09:55:02;;;;;;;3.63;3.05;;;;;;;;;;4979826;28;20440;-68
2023/06/16 09:57:29;;;;;;;3.80;3.00;;;;;;;;;;4981474;28;20437;-68
2023/06/16 09:59:58;;;;;;;4.53;3.40;;;;;;;;;;4983768;28;20527;-68
2023/06/16 10:02:25;;;;;;;3.53;3.13;;;;;;;;;;4981106;28;20418;-68
2023/06/16 10:04:54;;;;;;;3.53;2.90;;;;;;;;;;4982126;28;20416;-68
2023/06/16 10:07:21;;;;;;;3.20;2.90;;;;;;;;;;4973357;28;20456;-67
2023/06/16 10:09:50;;;;;;;4.72;3.33;;;;;;;;;;4976015;28;20790;-68
2023/06/16 10:12:20;;;;;;;3.95;3.00;;;;;;;;;;4978350;28;20511;-68
2023/06/16 10:14:47;;;;;;;4.10;3.38;;;;;;;;;;4984058;28;20496;-68
2023/06/16 10:17:17;;;;;;;3.97;3.15;;;;;;;;;;4981542;28;20426;-68
2023/06/16 10:19:48;;;;;;;5.10;3.03;;;;;;;;;;4981064;28;20918;-68
2023/06/16 10:22:16;;;;;;;4.32;3.35;;;;;;;;;;4989929;28;20426;-68
2023/06/16 10:24:43;;;;;;;4.43;3.20;;;;;;;;;;4978790;28;20430;-67
2023/06/16 10:27:13;;;;;;;4.60;3.25;;;;;;;;;;4983285;28;20430;-69
2023/06/16 10:29:40;;;;;;;3.85;3.40;;;;;;;;;;4980167;28;20438;-67
2023/06/16 10:32:08;;;;;;;3.77;3.47;;;;;;;;;;4986705;28;20434;-68
2023/06/16 10:34:36;;;;;;;4.40;3.22;;;;;;;;;;4981642;28;20422;-68
2023/06/16 10:37:04;;;;;;;3.60;3.10;;;;;;;;;;4983016;28;20445;-68
2023/06/16 10:39:34;;;;;;;3.50;2.90;;;;;;;;;;4977325;28;20472;-68
2023/06/16 10:42:01;;;;;;;4.20;2.90;;;;;;;;;;4986868;28;20435;-68
2023/06/16 10:44:29;;;;;;;3.40;3.00;;;;;;;;;;4987347;28;20506;-69
2023/06/16 10:47:27;;;;;;;4.10;2.92;;;;;;;;;;4986175;28;20438;-68
2023/06/16 10:49:57;;;;;;;4.93;3.10;;;;;;;;;;4981423;28;21001;-68
2023/06/16 10:52:35;;;;;;;4.23;3.20;;;;;;;;;;4988508;28;20924;-68
2023/06/16 10:55:17;;;;;;;3.97;3.58;;;;;;;;;;4985557;28;20438;-67
2023/06/16 10:57:46;;;;;;;3.45;3.15;;;;;;;;;;4986063;28;20452;-66
2023/06/16 11:00:16;;;;;;;3.05;2.75;;;;;;;;;;4983614;28;20437;-66
2023/06/16 11:02:49;;;;;;;3.60;3.20;;;;;;;;;;4980941;28;20442;-66
2023/06/16 11:05:22;;;;;;;3.20;2.90;;;;;;;;;;4986464;28;20419;-69
2023/06/16 11:08:05;;;;;;;3.50;3.00;;;;;;;;;;4988831;28;21167;-67
2023/06/16 11:10:47;;;;;;;3.72;3.10;;;;;;;;;;4976534;28;20529;-67
2023/06/16 11:13:15;;;;;;;3.45;3.10;;;;;;;;;;4985091;28;20839;-67
2023/06/16 11:15:43;;;;;;;4.32;3.20;;;;;;;;;;4985023;28;20446;-67
2023/06/16 11:18:10;;;;;;;3.20;2.80;;;;;;;;;;4980129;28;20472;-67
2023/06/16 11:20:39;;;;;;;3.58;3.22;;;;;;;;;;4989968;28;20964;-68
2023/06/16 11:23:06;;;;;;;3.10;2.80;;;;;;;;;;4980716;28;20749;-67
2023/06/16 11:25:34;;;;;;;3.30;2.90;;;;;;;;;;4988816;28;20422;-68
2023/06/16 11:28:01;;;;;;;3.92;2.90;;;;;;;;;;4977391;28;20447;-69
2023/06/16 11:30:30;;;;;;;3.83;3.20;;;;;;;;;;4985612;28;20455;-68
2023/06/16 11:32:58;;;;;;;3.00;2.70;;;;;;;;;;4980934;28;20452;-69
2023/06/16 11:35:31;;;;;;;2.90;2.60;;;;;;;;;;4981192;28;21322;-71
2023/06/16 11:37:59;;;;;;;3.13;2.60;;;;;;;;;;4978743;28;20443;-68
2023/06/16 11:40:27;;;;;;;3.03;2.72;;;;;;;;;;4979325;28;20450;-68
2023/06/16 11:42:56;;;;;;;3.72;2.55;;;;;;;;;;4977144;28;20440;-68
2023/06/16 11:45:23;;;;;;;3.00;2.40;;;;;;;;;;4981815;28;20444;-69
2023/06/16 11:47:50;;;;;;;2.90;2.70;;;;;;;;;;4977883;28;20898;-68
2023/06/16 11:50:17;;;;;;;2.70;2.50;;;;;;;;;;4981025;28;20440;-68
2023/06/16 11:52:45;;;;;;;3.10;2.80;;;;;;;;;;4979097;28;20476;-68
2023/06/16 11:55:13;;;;;;;2.95;2.75;;;;;;;;;;4985109;28;20939;-68
2023/06/16 11:57:40;;;;;;;2.70;2.50;;;;;;;;;;4987779;28;20422;-68
2023/06/16 12:00:09;;;;;;;3.00;2.60;;;;;;;;;;4984456;28;20880;-68
2023/06/16 12:02:36;;;;;;;3.42;2.50;;;;;;;;;;4984043;28;20442;-67
2023/06/16 12:05:04;;;;;;;3.00;2.63;;;;;;;;;;4982371;28;20732;-67
2023/06/16 12:07:31;;;;;;;2.83;2.50;;;;;;;;;;4984486;28;20928;-67
2023/06/16 12:09:58;;;;;;;2.70;2.50;;;;;;;;;;4982433;28;20525;-68
2023/06/16 12:12:28;;;;;;;2.65;2.25;;;;;;;;;;4985623;28;20904;-68
2023/06/16 12:14:56;;;;;;;2.80;2.40;;;;;;;;;;4986143;28;20866;-67
2023/06/16 12:17:24;;;;;;;2.53;2.00;;;;;;;;;;4985563;28;20446;-67
2023/06/16 12:19:52;;;;;;;2.65;2.10;;;;;;;;;;4986322;28;20581;-67
2023/06/16 12:22:20;;;;;;;2.88;2.40;;;;;;;;;;4977244;28;20578;-68
2023/06/16 12:24:48;;;;;;;2.40;2.20;;;;;;;;;;4981205;28;20446;-67
2023/06/16 12:27:24;;;;;;;2.50;2.30;;;;;;;;;;4981626;28;20445;-68
2023/06/16 12:29:57;;;;;;;2.30;2.10;;;;;;;;;;4977835;28;20924;-69
2023/06/16 12:32:30;;;;;;;3.22;2.60;;;;;;;;;;4983321;28;20448;-69
2023/06/16 12:34:57;;;;;;;3.42;2.42;;;;;;;;;;4992076;28;20495;-69
2023/06/16 12:37:26;;;;;;;2.80;2.50;;;;;;;;;;4985353;28;20445;-68
2023/06/16 12:39:57;;;;;;;3.92;2.63;;;;;;;;;;4978719;28;20438;-67
2023/06/16 12:42:25;;;;;;;2.75;2.55;;;;;;;;;;4981586;28;20441;-68
2023/06/16 12:44:53;;;;;;;2.80;2.30;;;;;;;;;;4983723;28;20436;-68
2023/06/16 12:47:24;;;;;;;3.00;2.80;;;;;;;;;;4985283;28;20430;-67
2023/06/16 12:49:51;;;;;;;2.50;2.30;;;;;;;;;;4983260;28;20839;-68
2023/06/16 12:52:19;;;;;;;2.42;2.20;;;;;;;;;;4985702;28;20455;-69
2023/06/16 12:54:46;;;;;;;2.50;2.30;;;;;;;;;;4986347;28;20449;-68
2023/06/16 12:57:13;;;;;;;2.70;2.28;;;;;;;;;;4983158;28;20478;-69
2023/06/16 12:59:40;;;;;;;3.35;2.55;;;;;;;;;;4980452;28;20813;-70
2023/06/16 13:02:08;;;;;;;2.80;2.60;;;;;;;;;;4982664;28;20442;-70
2023/06/16 13:04:36;;;;;;;2.80;2.60;;;;;;;;;;4975774;28;20929;-71
2023/06/16 13:07:04;;;;;;;2.80;2.50;;;;;;;;;;4985412;28;20430;-70
2023/06/16 13:09:31;;;;;;;2.40;2.20;;;;;;;;;;4975291;28;20728;-71
2023/06/16 13:11:59;;;;;;;2.60;2.40;;;;;;;;;;4984359;28;20438;-71
2023/06/16 13:14:26;;;;;;;3.40;2.40;;;;;;;;;;4985250;28;20442;-70
2023/06/16 13:16:53;;;;;;;2.95;2.70;;;;;;;;;;4977967;28;20422;-70
2023/06/16 13:19:20;;;;;;;2.88;2.47;;;;;;;;;;4974135;28;20423;-71
2023/06/16 13:21:49;;;;;;;2.90;2.70;;;;;;;;;;4986615;28;20892;-70
2023/06/16 13:24:16;;;;;;;3.00;2.42;;;;;;;;;;4986194;28;20810;-70
2023/06/16 13:26:43;;;;;;;4.00;2.90;;;;;;;;;;4984006;28;20445;-70
2023/06/16 13:29:10;;;;;;;3.43;2.63;;;;;;;;;;4985152;28;20507;-69
2023/06/16 13:31:37;;;;;;;3.33;3.10;;;;;;;;;;4976745;28;20434;-70
2023/06/16 13:34:04;;;;;;;3.33;3.00;;;;;;;;;;4990066;28;20426;-69
2023/06/16 13:36:32;;;;;;;5.07;2.88;;;;;;;;;;5000548;28;20434;-70
2023/06/16 13:39:03;;;;;;;3.50;3.00;;;;;;;;;;4981824;28;20505;-70
2023/06/16 13:41:30;;;;;;;4.13;2.80;;;;;;;;;;4979361;28;20903;-70
2023/06/16 13:43:57;;;;;;;3.90;2.80;;;;;;;;;;4983259;28;20922;-70
2023/06/16 13:46:24;;;;;;;3.55;3.25;;;;;;;;;;4977889;28;20448;-71
2023/06/16 13:48:51;;;;;;;4.00;3.00;;;;;;;;;;4982884;28;20425;-71
2023/06/16 13:51:18;;;;;;;3.47;2.60;;;;;;;;;;4971616;28;20892;-70
2023/06/16 13:53:45;;;;;;;3.90;2.90;;;;;;;;;;4979728;28;20566;-69
2023/06/16 13:56:14;;;;;;;3.90;3.03;;;;;;;;;;4984022;28;20435;-73
2023/06/16 13:58:41;;;;;;;5.90;3.10;;;;;;;;;;4983423;28;20820;-73
2023/06/16 14:01:08;;;;;;;3.80;3.50;;;;;;;;;;4983760;28;20493;-75
2023/06/16 14:03:35;;;;;;;4.67;3.53;;;;;;;;;;4976535;28;20458;-73
2023/06/16 14:06:02;;;;;;;4.30;3.20;;;;;;;;;;4980090;28;21067;-74
2023/06/16 14:08:29;;;;;;;4.63;3.50;;;;;;;;;;4983405;28;20433;-74
2023/06/16 14:10:56;;;;;;;4.63;3.30;;;;;;;;;;4982015;28;20430;-74
2023/06/16 14:13:25;;;;;;;3.50;3.20;;;;;;;;;;4981891;28;20620;-74
2023/06/16 14:15:52;;;;;;;3.55;3.25;;;;;;;;;;4979848;28;20943;-74
2023/06/16 14:18:20;;;;;;;4.53;3.70;;;;;;;;;;4985627;28;20445;-73
2023/06/16 14:20:47;;;;;;;4.28;3.88;;;;;;;;;;4985359;28;20434;-71
2023/06/16 14:23:14;;;;;;;3.90;3.30;;;;;;;;;;4993866;28;20521;-70
2023/06/16 14:25:44;;;;;;;3.90;3.50;;;;;;;;;;4981351;28;20936;-72
2023/06/16 14:28:11;;;;;;;4.20;3.72;;;;;;;;;;4984955;28;20442;-75
2023/06/16 14:30:40;;;;;;;3.63;3.33;;;;;;;;;;4985851;28;20443;-75
2023/06/16 14:33:07;;;;;;;3.90;3.50;;;;;;;;;;4979826;28;20439;-72
2023/06/16 14:35:34;;;;;;;4.60;3.80;;;;;;;;;;4981594;28;20435;-72
2023/06/16 14:38:02;;;;;;;3.63;3.33;;;;;;;;;;4989196;28;20433;-71
2023/06/16 14:40:29;;;;;;;4.00;3.70;;;;;;;;;;4980924;28;20489;-73
2023/06/16 14:42:56;;;;;;;5.07;3.97;;;;;;;;;;4978987;28;20714;-72
2023/06/16 14:45:23;;;;;;;4.00;3.60;;;;;;;;;;4981699;28;20451;-72
2023/06/16 14:47:52;;;;;;;3.97;3.30;;;;;;;;;;4977821;28;20438;-71
2023/06/16 14:50:19;;;;;;;5.20;3.60;;;;;;;;;;4987367;28;20435;-72